Time;durP1;ratioP1;P1;durP2;ratioP2;P2;SDS_P1;SDS_P2;PMS_P1;PMS_P2;Temp;Humidity;BMP_temperature;BMP_pressure;BME280_temperature;BME280_humidity;BME280_pressure;Samples;Min_cycle;Max_cycle;Signal;HPM_P1;HPM_P2
2022/07/18 00:02:22;;;;;;;10.40;4.05;;;17.00;99.90;;;;;;5131682;28;20121;-80
2022/07/18 00:05:08;;;;;;;10.20;4.00;;;17.00;99.90;;;;;;5129770;28;20422;-81
2022/07/18 00:07:55;;;;;;;8.05;3.70;;;17.00;99.90;;;;;;5130303;28;20051;-81
2022/07/18 00:10:41;;;;;;;10.77;4.40;;;16.90;99.90;;;;;;5131673;28;20047;-82
2022/07/18 00:13:27;;;;;;;7.00;4.40;;;16.90;99.90;;;;;;5134393;27;20043;-81
2022/07/18 00:16:13;;;;;;;8.63;4.22;;;16.90;99.90;;;;;;5134612;27;20398;-82
2022/07/18 00:19:00;;;;;;;7.28;4.35;;;16.90;99.90;;;;;;5135289;27;20490;-81
2022/07/18 00:21:46;;;;;;;7.03;4.60;;;16.90;99.90;;;;;;5121421;27;20043;-81
2022/07/18 00:24:33;;;;;;;8.15;5.18;;;16.90;99.90;;;;;;5136439;27;20137;-82
2022/07/18 00:27:19;;;;;;;8.73;4.50;;;16.90;99.90;;;;;;5136070;27;20054;-82
2022/07/18 00:30:06;;;;;;;8.52;5.15;;;16.90;99.90;;;;;;5135351;27;20441;-82
2022/07/18 00:32:52;;;;;;;9.25;4.85;;;16.90;99.90;;;;;;5134997;27;20107;-83
2022/07/18 00:35:38;;;;;;;8.95;4.75;;;16.90;99.90;;;;;;5137217;27;20047;-83
2022/07/18 00:38:24;;;;;;;8.52;5.25;;;16.80;99.90;;;;;;5116038;27;20202;-84
2022/07/18 00:41:15;;;;;;;8.88;5.40;;;16.80;99.90;;;;;;5139637;27;20050;-83
2022/07/18 00:44:01;;;;;;;9.27;5.05;;;16.80;99.90;;;;;;5136873;27;20047;-82
2022/07/18 00:46:56;;;;;;;11.40;6.30;;;16.80;99.90;;;;;;5141512;27;20051;-83
2022/07/18 00:49:42;;;;;;;20.13;6.15;;;16.80;99.90;;;;;;5134176;27;20051;-82
2022/07/18 00:52:29;;;;;;;9.30;5.15;;;16.80;99.90;;;;;;5102660;27;20058;-82
2022/07/18 00:55:15;;;;;;;9.15;6.00;;;16.80;99.90;;;;;;5106761;27;20096;-82
2022/07/18 00:58:01;;;;;;;7.72;4.85;;;16.70;99.90;;;;;;5132700;27;20389;-81
2022/07/18 01:03:52;;;;;;;11.15;6.22;;;16.70;99.90;;;;;;5115580;27;20046;-82
2022/07/18 01:06:38;;;;;;;11.23;5.85;;;16.70;99.90;;;;;;5134163;27;20486;-82
2022/07/18 01:09:25;;;;;;;9.63;5.50;;;16.70;99.90;;;;;;5100137;27;20401;-82
2022/07/18 01:12:11;;;;;;;10.65;5.85;;;16.70;99.90;;;;;;5132596;27;20095;-83
2022/07/18 01:14:58;;;;;;;11.82;6.20;;;16.70;99.90;;;;;;5133396;27;20058;-82
2022/07/18 01:17:44;;;;;;;10.68;6.60;;;16.70;99.90;;;;;;5124109;27;20462;-82
2022/07/18 01:20:31;;;;;;;10.07;6.70;;;16.60;99.90;;;;;;5115182;27;20069;-82
2022/07/18 01:23:17;;;;;;;8.95;5.78;;;16.60;99.90;;;;;;5132510;27;20051;-82
2022/07/18 01:26:04;;;;;;;9.68;5.70;;;16.60;99.90;;;;;;5114460;27;20054;-81
2022/07/18 01:28:51;;;;;;;10.77;5.55;;;16.60;99.90;;;;;;5119601;27;20054;-83
2022/07/18 01:31:40;;;;;;;15.05;6.72;;;16.60;99.90;;;;;;5103945;28;20079;-83
2022/07/18 01:34:26;;;;;;;12.05;5.60;;;16.60;99.90;;;;;;5132040;27;20051;-83
2022/07/18 01:37:12;;;;;;;7.28;4.60;;;16.60;99.90;;;;;;5114491;27;20057;-83
2022/07/18 01:39:59;;;;;;;10.10;5.72;;;16.60;99.90;;;;;;5131801;27;20063;-82
2022/07/18 01:42:45;;;;;;;12.98;5.25;;;16.60;99.90;;;;;;5132851;27;20039;-81
2022/07/18 01:45:31;;;;;;;11.48;5.90;;;16.60;99.90;;;;;;5119653;27;20048;-81
2022/07/18 01:48:19;;;;;;;13.05;5.38;;;16.60;99.90;;;;;;5117739;27;20185;-82
2022/07/18 01:51:09;;;;;;;9.82;5.10;;;16.50;99.90;;;;;;5116354;27;20046;-82
2022/07/18 01:54:01;;;;;;;9.77;5.20;;;16.50;99.90;;;;;;5114263;27;20055;-81
2022/07/18 01:56:47;;;;;;;9.07;5.20;;;16.50;99.90;;;;;;5102493;27;20119;-83
2022/07/18 01:59:34;;;;;;;8.57;4.95;;;16.50;99.90;;;;;;5132455;27;20039;-82
2022/07/18 02:02:20;;;;;;;10.63;5.15;;;16.50;99.90;;;;;;5099850;27;20455;-82
2022/07/18 02:05:07;;;;;;;7.60;4.63;;;16.50;99.90;;;;;;5131483;27;20406;-82
2022/07/18 02:07:53;;;;;;;9.13;5.28;;;16.50;99.90;;;;;;5132641;27;20050;-83
2022/07/18 02:10:39;;;;;;;10.98;6.28;;;16.50;99.90;;;;;;5116227;27;20051;-82
2022/07/18 02:13:25;;;;;;;7.55;4.88;;;16.50;99.90;;;;;;5114870;27;20198;-82
2022/07/18 02:18:47;;;;;;;8.13;5.40;;;16.50;99.90;;;;;;5080374;22;20057;-82
2022/07/18 02:21:33;;;;;;;9.32;4.70;;;16.50;99.90;;;;;;5056212;28;20064;-82
2022/07/18 02:24:20;;;;;;;8.30;4.63;;;16.50;99.90;;;;;;5041972;28;20064;-82
2022/07/18 02:27:06;;;;;;;10.50;5.32;;;16.50;99.90;;;;;;5050908;28;20049;-82
2022/07/18 02:29:52;;;;;;;9.43;4.88;;;16.40;99.90;;;;;;5050423;28;20477;-82
2022/07/18 02:32:39;;;;;;;10.13;5.30;;;16.50;99.90;;;;;;5049978;28;20037;-82
2022/07/18 02:35:26;;;;;;;10.25;4.97;;;16.50;99.90;;;;;;5034631;28;20485;-82
2022/07/18 02:38:12;;;;;;;14.38;5.38;;;16.50;99.90;;;;;;5050596;28;20049;-82
2022/07/18 02:40:58;;;;;;;12.07;5.55;;;16.50;99.90;;;;;;5051161;28;20080;-82
2022/07/18 02:43:44;;;;;;;10.77;6.22;;;16.50;99.90;;;;;;5066478;28;20534;-82
2022/07/18 02:46:30;;;;;;;7.53;4.53;;;16.40;99.90;;;;;;5052510;28;20052;-82
2022/07/18 02:49:28;;;;;;;7.97;5.30;;;16.40;99.90;;;;;;5051529;28;20532;-81
2022/07/18 02:52:14;;;;;;;8.93;5.28;;;16.50;99.90;;;;;;5054842;28;20445;-82
2022/07/18 02:55:01;;;;;;;10.13;5.45;;;16.50;99.90;;;;;;5057462;28;20109;-83
2022/07/18 02:57:47;;;;;;;13.13;5.43;;;16.40;99.90;;;;;;5035016;28;20080;-83
2022/07/18 03:00:33;;;;;;;9.93;5.07;;;16.40;99.90;;;;;;5049871;28;20049;-83
2022/07/18 03:03:20;;;;;;;11.40;5.72;;;16.50;99.90;;;;;;5035838;28;20750;-82
2022/07/18 03:06:06;;;;;;;10.07;5.45;;;16.50;99.90;;;;;;5049429;28;20052;-82
2022/07/18 03:08:52;;;;;;;11.65;5.93;;;16.50;99.90;;;;;;5049892;28;20080;-82
2022/07/18 03:11:38;;;;;;;9.57;5.85;;;16.40;99.90;;;;;;5050337;28;20493;-82
2022/07/18 03:14:24;;;;;;;15.60;5.97;;;16.40;99.90;;;;;;5049852;28;20385;-82
2022/07/18 03:17:11;;;;;;;10.77;5.43;;;16.30;99.90;;;;;;5057053;28;20088;-82
2022/07/18 03:19:57;;;;;;;12.20;5.78;;;16.30;99.90;;;;;;5074018;28;20057;-82
2022/07/18 03:22:43;;;;;;;13.18;6.03;;;16.30;99.90;;;;;;5072152;28;20048;-82
2022/07/18 03:25:29;;;;;;;12.48;6.57;;;16.30;99.90;;;;;;5072153;28;20488;-81
2022/07/18 03:28:15;;;;;;;9.63;5.43;;;16.30;99.90;;;;;;5070114;28;20075;-83
2022/07/18 03:31:03;;;;;;;11.68;5.85;;;16.30;99.90;;;;;;5068879;28;20040;-82
2022/07/18 03:33:49;;;;;;;10.05;5.40;;;16.20;99.90;;;;;;5069492;28;20053;-83
2022/07/18 03:36:36;;;;;;;13.48;5.93;;;16.20;99.90;;;;;;5068306;28;20767;-82
2022/07/18 03:39:25;;;;;;;10.13;5.80;;;16.20;99.90;;;;;;5069563;28;20166;-82
2022/07/18 03:42:12;;;;;;;11.95;5.28;;;16.20;99.90;;;;;;5068157;28;20052;-82
2022/07/18 03:44:58;;;;;;;14.07;6.40;;;16.20;99.90;;;;;;5069804;28;20423;-81
2022/07/18 03:47:44;;;;;;;11.07;6.03;;;16.30;99.90;;;;;;5057274;28;20136;-81
2022/07/18 03:50:30;;;;;;;14.30;6.22;;;16.30;99.90;;;;;;5073708;28;20052;-81
2022/07/18 03:53:17;;;;;;;12.63;6.90;;;16.30;99.90;;;;;;5079358;28;20052;-82
2022/07/18 03:56:03;;;;;;;12.32;6.22;;;16.40;99.90;;;;;;5058997;28;20491;-81
2022/07/18 03:58:49;;;;;;;14.20;6.35;;;16.40;99.90;;;;;;5058177;28;20056;-82
2022/07/18 04:01:36;;;;;;;10.13;5.82;;;16.50;99.90;;;;;;5074437;28;20094;-82
2022/07/18 04:04:22;;;;;;;12.88;6.10;;;16.40;99.90;;;;;;5072742;28;20412;-82
2022/07/18 04:07:08;;;;;;;8.75;4.88;;;16.50;99.90;;;;;;5073191;28;20052;-82
2022/07/18 04:09:54;;;;;;;12.30;6.70;;;16.60;99.90;;;;;;5073232;28;20059;-82
2022/07/18 04:12:52;;;;;;;14.30;6.40;;;16.60;99.90;;;;;;5071641;28;20084;-83
2022/07/18 04:15:39;;;;;;;9.32;5.55;;;16.60;99.90;;;;;;5073204;28;20052;-83
2022/07/18 04:18:25;;;;;;;11.13;6.15;;;16.70;99.90;;;;;;5072771;28;20096;-83
2022/07/18 04:21:11;;;;;;;12.63;5.63;;;16.70;99.90;;;;;;5072274;28;20068;-83
2022/07/18 04:23:57;;;;;;;15.07;6.15;;;16.70;99.90;;;;;;5071792;28;20500;-83
2022/07/18 04:26:43;;;;;;;14.95;5.85;;;16.70;99.90;;;;;;5072423;28;20113;-83
2022/07/18 04:29:31;;;;;;;10.68;5.65;;;16.80;99.90;;;;;;5076096;28;20083;-83
2022/07/18 04:32:17;;;;;;;14.38;5.63;;;16.80;99.90;;;;;;5073354;28;20487;-83
2022/07/18 04:35:05;;;;;;;9.93;5.95;;;16.80;99.90;;;;;;5071367;28;20492;-83
2022/07/18 04:37:52;;;;;;;15.40;6.50;;;16.90;99.90;;;;;;5072949;28;20091;-83
2022/07/18 04:40:38;;;;;;;10.90;5.50;;;16.90;99.90;;;;;;5073325;28;20385;-84
2022/07/18 04:43:24;;;;;;;11.13;6.05;;;16.90;99.90;;;;;;5073020;28;20055;-82
2022/07/18 04:46:11;;;;;;;10.68;5.97;;;17.00;99.90;;;;;;5071829;28;20178;-83
2022/07/18 04:48:57;;;;;;;9.02;5.30;;;17.00;99.90;;;;;;5072666;28;20056;-82
2022/07/18 04:51:43;;;;;;;10.15;5.10;;;17.00;99.90;;;;;;5062579;28;20643;-83
2022/07/18 04:54:29;;;;;;;10.25;5.75;;;17.10;99.90;;;;;;5080484;28;20071;-83
2022/07/18 04:57:15;;;;;;;9.30;5.07;;;17.10;99.90;;;;;;5074703;28;20044;-83
2022/07/18 05:00:05;;;;;;;12.82;5.22;;;17.20;99.90;;;;;;5072016;28;20143;-83
2022/07/18 05:02:53;;;;;;;9.43;5.00;;;17.20;99.90;;;;;;5071142;28;20063;-83
2022/07/18 05:05:39;;;;;;;9.52;4.70;;;17.20;99.90;;;;;;5072173;28;20045;-83
2022/07/18 05:08:25;;;;;;;9.48;5.28;;;17.30;99.90;;;;;;5070715;28;20049;-83
2022/07/18 05:11:12;;;;;;;11.38;5.07;;;17.30;99.90;;;;;;5070930;28;20504;-85
2022/07/18 05:13:58;;;;;;;11.70;4.40;;;17.30;99.90;;;;;;5057050;28;20083;-83
2022/07/18 05:16:44;;;;;;;10.35;4.65;;;17.40;99.90;;;;;;5071432;28;20056;-83
2022/07/18 05:19:30;;;;;;;9.55;4.85;;;17.40;99.90;;;;;;5071113;28;20087;-82
2022/07/18 05:22:16;;;;;;;9.93;4.53;;;17.50;99.90;;;;;;5072380;28;20052;-82
2022/07/18 05:25:05;;;;;;;12.00;5.75;;;17.50;99.90;;;;;;5073008;28;20660;-83
2022/07/18 05:27:52;;;;;;;9.98;4.72;;;17.50;99.90;;;;;;5072473;28;20397;-82
2022/07/18 05:30:38;;;;;;;10.10;5.13;;;17.50;99.90;;;;;;5071634;28;20052;-83
2022/07/18 05:33:25;;;;;;;10.23;4.80;;;17.60;99.90;;;;;;5072218;28;20052;-82
2022/07/18 05:36:11;;;;;;;10.18;5.25;;;17.60;99.90;;;;;;5056714;28;20099;-83
2022/07/18 05:38:57;;;;;;;9.60;5.18;;;17.70;99.90;;;;;;5071721;28;20049;-84
2022/07/18 05:41:44;;;;;;;10.30;4.93;;;17.70;99.90;;;;;;5072641;28;20528;-83
2022/07/18 05:44:31;;;;;;;8.32;4.78;;;17.70;99.90;;;;;;5071836;28;20485;-82
2022/07/18 05:47:17;;;;;;;11.75;4.38;;;17.80;99.90;;;;;;5072011;28;20048;-83
2022/07/18 05:50:05;;;;;;;6.40;4.00;;;17.90;99.90;;;;;;5074067;28;20181;-83
2022/07/18 05:52:54;;;;;;;8.57;3.72;;;18.00;99.90;;;;;;5076442;28;20139;-82
2022/07/18 05:55:40;;;;;;;9.75;4.57;;;18.00;99.90;;;;;;5060846;28;20048;-83
2022/07/18 05:58:27;;;;;;;11.48;4.75;;;18.10;99.90;;;;;;5059236;28;20497;-82
2022/07/18 06:01:16;;;;;;;7.93;4.13;;;18.20;99.90;;;;;;5070117;28;20110;-83
2022/07/18 06:04:03;;;;;;;8.55;4.93;;;18.30;99.90;;;;;;5070185;28;20492;-82
2022/07/18 06:06:49;;;;;;;10.68;4.85;;;18.30;99.90;;;;;;5070072;28;20140;-83
2022/07/18 06:09:37;;;;;;;7.78;4.30;;;18.40;99.90;;;;;;5069677;28;20480;-83
2022/07/18 06:12:23;;;;;;;8.20;3.75;;;18.40;99.90;;;;;;5069787;28;20135;-83
2022/07/18 06:15:10;;;;;;;14.02;5.18;;;18.40;99.90;;;;;;5071137;28;20052;-82
2022/07/18 06:17:56;;;;;;;8.32;4.05;;;18.40;99.90;;;;;;5069425;28;20053;-83
2022/07/18 06:20:42;;;;;;;10.32;4.93;;;18.50;99.90;;;;;;5070185;28;20139;-83
2022/07/18 06:23:29;;;;;;;7.30;4.18;;;18.50;99.90;;;;;;5071753;28;20408;-83
2022/07/18 06:26:15;;;;;;;8.48;4.30;;;18.50;99.90;;;;;;5073822;28;20455;-84
2022/07/18 06:29:02;;;;;;;9.25;4.90;;;18.60;99.90;;;;;;5070584;28;20110;-83
2022/07/18 06:31:48;;;;;;;12.75;4.15;;;18.60;99.90;;;;;;5071333;28;20056;-83
2022/07/18 06:34:34;;;;;;;8.07;4.63;;;18.70;99.90;;;;;;5070848;28;20044;-83
2022/07/18 06:37:20;;;;;;;7.30;4.10;;;18.80;99.90;;;;;;5073727;28;20613;-84
2022/07/18 06:40:07;;;;;;;7.80;3.78;;;18.90;99.90;;;;;;5077081;28;20055;-83
2022/07/18 06:42:54;;;;;;;7.93;4.20;;;19.00;99.90;;;;;;5079134;28;20044;-83
2022/07/18 06:45:40;;;;;;;10.15;4.88;;;19.20;99.90;;;;;;5081457;28;20045;-83
2022/07/18 06:48:26;;;;;;;9.32;4.28;;;19.50;99.90;;;;;;5080058;28;20060;-83
2022/07/18 06:51:12;;;;;;;8.63;4.07;;;19.70;99.90;;;;;;5072065;28;20052;-84
2022/07/18 06:53:58;;;;;;;11.32;4.22;;;19.80;99.90;;;;;;5073964;28;20080;-82
2022/07/18 06:56:44;;;;;;;8.95;3.83;;;20.00;99.90;;;;;;5058462;28;20036;-82
2022/07/18 06:59:32;;;;;;;8.82;4.07;;;20.20;99.90;;;;;;5070208;28;20049;-81
2022/07/18 07:02:18;;;;;;;11.15;4.03;;;20.30;99.90;;;;;;5070384;28;20511;-83
2022/07/18 07:05:05;;;;;;;8.50;3.30;;;20.40;99.90;;;;;;5072177;28;20048;-82
2022/07/18 07:07:51;;;;;;;9.77;3.55;;;20.60;99.90;;;;;;5071452;28;20094;-84
2022/07/18 07:10:38;;;;;;;8.73;3.40;;;20.60;99.90;;;;;;5070957;28;20063;-84
2022/07/18 07:13:24;;;;;;;7.57;3.35;;;20.70;99.90;;;;;;5071114;28;20044;-82
2022/07/18 07:16:10;;;;;;;6.97;3.05;;;20.70;99.90;;;;;;5070158;28;20439;-82
2022/07/18 07:18:56;;;;;;;8.35;3.65;;;20.80;99.90;;;;;;5070795;28;20227;-83
2022/07/18 07:21:43;;;;;;;6.05;2.97;;;20.70;99.90;;;;;;5070506;28;20049;-82
2022/07/18 07:24:29;;;;;;;9.27;3.40;;;20.80;99.90;;;;;;5071175;28;20132;-84
2022/07/18 07:27:15;;;;;;;6.70;3.10;;;20.80;99.90;;;;;;5070100;28;20542;-83
2022/07/18 07:30:03;;;;;;;6.65;3.10;;;20.90;99.90;;;;;;5072077;28;20052;-82
2022/07/18 07:32:50;;;;;;;7.25;3.13;;;21.00;99.90;;;;;;5069899;28;20506;-82
2022/07/18 07:35:36;;;;;;;7.05;3.13;;;21.20;99.90;;;;;;5069526;28;20062;-81
2022/07/18 07:38:27;;;;;;;9.38;3.75;;;21.50;99.90;;;;;;5069989;28;20049;-83
2022/07/18 07:41:14;;;;;;;6.82;2.97;;;21.50;99.90;;;;;;5055034;28;20479;-82
2022/07/18 07:44:01;;;;;;;11.48;2.80;;;21.60;99.90;;;;;;5069659;28;20489;-82
2022/07/18 07:46:47;;;;;;;6.57;2.45;;;21.70;99.90;;;;;;5069669;28;20483;-83
2022/07/18 07:49:34;;;;;;;6.68;2.55;;;21.90;99.60;;;;;;5068378;28;20080;-82
2022/07/18 07:52:23;;;;;;;8.05;2.35;;;22.00;99.60;;;;;;5069974;28;20049;-84
2022/07/18 07:55:09;;;;;;;6.88;2.50;;;22.00;99.30;;;;;;5058238;28;20114;-82
2022/07/18 07:57:56;;;;;;;7.88;2.53;;;22.10;99.10;;;;;;5073714;28;20041;-83
2022/07/18 08:00:42;;;;;;;5.07;2.50;;;22.30;99.20;;;;;;5056252;28;20045;-82
2022/07/18 08:03:29;;;;;;;5.88;2.78;;;22.30;99.10;;;;;;5056559;28;20135;-83
2022/07/18 08:06:16;;;;;;;7.30;2.78;;;22.60;98.90;;;;;;5073202;28;20098;-82
2022/07/18 08:09:02;;;;;;;6.28;2.70;;;22.80;98.40;;;;;;5074129;28;20044;-82
2022/07/18 08:11:49;;;;;;;8.10;2.63;;;23.10;98.20;;;;;;5071728;28;20147;-82
2022/07/18 08:14:39;;;;;;;5.07;2.20;;;23.40;98.10;;;;;;5069842;28;20059;-82
2022/07/18 08:17:26;;;;;;;6.70;2.38;;;23.60;97.50;;;;;;5069802;28;20056;-81
2022/07/18 08:20:13;;;;;;;4.68;1.75;;;23.80;97.30;;;;;;5068601;28;20048;-81
2022/07/18 08:23:02;;;;;;;5.72;2.22;;;23.90;96.60;;;;;;5069105;28;20049;-81
2022/07/18 08:25:48;;;;;;;6.25;1.75;;;24.00;96.40;;;;;;5068349;28;20048;-81
2022/07/18 08:28:34;;;;;;;5.93;1.90;;;24.10;96.30;;;;;;5070011;28;20460;-81
2022/07/18 08:31:21;;;;;;;5.70;2.50;;;24.10;95.70;;;;;;5069847;28;20200;-80
2022/07/18 08:34:07;;;;;;;7.25;1.98;;;24.10;95.60;;;;;;5071205;28;20048;-81
2022/07/18 08:36:53;;;;;;;6.22;1.60;;;24.10;95.70;;;;;;5072516;28;20041;-81
2022/07/18 08:39:39;;;;;;;5.20;1.67;;;24.20;95.50;;;;;;5072180;28;20052;-81
2022/07/18 08:42:27;;;;;;;6.57;1.70;;;24.20;94.60;;;;;;5074974;28;20048;-81
2022/07/18 08:45:13;;;;;;;5.55;1.70;;;24.10;94.40;;;;;;5074254;28;20047;-81
2022/07/18 08:47:59;;;;;;;5.75;1.90;;;24.10;94.70;;;;;;5072395;28;20537;-80
2022/07/18 08:50:47;;;;;;;8.88;2.85;;;24.30;94.70;;;;;;5072434;28;20048;-80
2022/07/18 08:53:37;;;;;;;4.70;1.52;;;24.30;93.90;;;;;;5072067;28;20044;-81
2022/07/18 08:56:23;;;;;;;8.13;1.80;;;24.30;93.80;;;;;;5071107;28;20090;-80
2022/07/18 08:59:09;;;;;;;5.50;2.28;;;24.40;94.00;;;;;;5072953;28;20067;-83
2022/07/18 09:01:56;;;;;;;6.03;1.50;;;24.50;94.20;;;;;;5074565;28;20082;-80
2022/07/18 09:04:44;;;;;;;7.07;1.70;;;24.60;93.80;;;;;;5072084;28;20079;-82
2022/07/18 09:07:32;;;;;;;4.93;1.77;;;24.70;92.90;;;;;;5072465;28;20044;-82
2022/07/18 09:10:18;;;;;;;6.22;1.70;;;24.80;92.40;;;;;;5072203;28;20041;-81
2022/07/18 09:13:04;;;;;;;4.90;1.45;;;25.10;92.50;;;;;;5071436;28;20048;-81
2022/07/18 09:16:13;;;;;;;5.97;1.45;;;25.40;92.00;;;;;;5056825;28;20052;-80
2022/07/18 09:19:05;;;;;;;7.55;1.83;;;25.80;92.20;;;;;;5070109;28;20060;-81
2022/07/18 09:21:52;;;;;;;4.90;1.80;;;26.20;90.40;;;;;;5057067;28;20472;-82
2022/07/18 09:24:49;;;;;;;7.80;1.65;;;26.10;90.30;;;;;;5070903;28;20060;-82
2022/07/18 09:27:38;;;;;;;8.52;1.58;;;26.40;90.10;;;;;;5070268;28;20105;-82
2022/07/18 09:30:28;;;;;;;5.88;1.60;;;26.50;87.90;;;;;;5071949;28;20044;-81
2022/07/18 09:33:16;;;;;;;4.68;1.98;;;26.40;87.90;;;;;;5071370;28;20051;-82
2022/07/18 09:36:02;;;;;;;6.53;1.88;;;26.30;87.70;;;;;;5075614;28;20067;-82
2022/07/18 09:38:48;;;;;;;4.78;1.73;;;26.50;87.40;;;;;;5073901;28;20052;-83
2022/07/18 09:41:35;;;;;;;6.03;1.65;;;26.60;87.70;;;;;;5070514;28;20051;-81
2022/07/18 09:44:21;;;;;;;7.38;1.85;;;26.80;88.30;;;;;;5070805;28;20578;-82
2022/07/18 09:47:07;;;;;;;10.93;2.10;;;26.80;87.80;;;;;;5071037;28;20084;-82
2022/07/18 09:49:54;;;;;;;4.63;1.50;;;27.20;88.20;;;;;;5070609;28;20056;-82
2022/07/18 09:52:41;;;;;;;5.93;1.77;;;27.30;86.40;;;;;;5071018;28;20646;-81
2022/07/18 09:55:27;;;;;;;7.32;1.50;;;27.30;85.20;;;;;;5071191;28;20056;-81
2022/07/18 09:58:18;;;;;;;7.22;1.58;;;27.50;85.10;;;;;;5071122;28;20444;-81
2022/07/18 10:01:06;;;;;;;6.28;1.90;;;27.60;83.90;;;;;;5071239;28;20110;-82
2022/07/18 10:03:53;;;;;;;9.15;2.13;;;27.60;83.10;;;;;;5070113;28;20139;-81
2022/07/18 10:06:42;;;;;;;7.07;2.17;;;27.60;84.20;;;;;;5069567;28;20052;-81
2022/07/18 10:09:28;;;;;;;6.25;2.10;;;27.70;85.90;;;;;;5056105;28;20136;-81
2022/07/18 10:12:15;;;;;;;5.68;2.00;;;27.90;86.70;;;;;;5069742;28;20057;-81
2022/07/18 10:15:02;;;;;;;4.57;2.03;;;27.90;83.50;;;;;;5069640;28;20087;-82
2022/07/18 10:17:48;;;;;;;5.47;2.03;;;28.20;86.00;;;;;;5069031;28;20110;-81
2022/07/18 10:20:38;;;;;;;4.45;1.65;;;28.30;85.10;;;;;;5070425;28;20056;-81
2022/07/18 10:23:42;;;;;;;10.05;2.67;;;28.50;82.20;;;;;;5055808;28;20404;-83
2022/07/18 10:26:30;;;;;;;5.53;1.50;;;28.80;79.30;;;;;;5069024;28;20049;-81
2022/07/18 10:29:16;;;;;;;6.38;2.25;;;28.80;77.90;;;;;;5070106;28;20718;-82
2022/07/18 10:32:04;;;;;;;3.92;1.70;;;29.10;79.90;;;;;;5070426;28;20064;-81
2022/07/18 10:34:50;;;;;;;4.45;1.70;;;28.90;76.20;;;;;;5069152;28;20045;-84
2022/07/18 10:37:37;;;;;;;6.32;1.95;;;29.30;76.10;;;;;;5070951;28;20053;-83
2022/07/18 10:40:29;;;;;;;8.13;2.30;;;29.50;75.80;;;;;;5069297;28;20044;-84
2022/07/18 10:43:30;;;;;;;6.28;1.92;;;29.50;72.60;;;;;;5073726;28;20048;-84
2022/07/18 10:46:16;;;;;;;7.68;2.28;;;29.60;74.10;;;;;;5074159;28;20436;-84
2022/07/18 10:49:03;;;;;;;6.82;2.30;;;30.10;73.30;;;;;;5072507;28;20045;-81
2022/07/18 10:51:49;;;;;;;5.70;1.83;;;30.00;70.20;;;;;;5070985;28;20117;-81
2022/07/18 10:54:35;;;;;;;5.07;2.45;;;30.20;72.10;;;;;;5055462;28;20088;-82
2022/07/18 10:57:21;;;;;;;5.70;2.47;;;30.40;69.30;;;;;;5068318;28;20566;-81
2022/07/18 11:00:31;;;;;;;6.22;2.63;;;30.30;68.20;;;;;;5055706;28;20152;-83
2022/07/18 11:03:25;;;;;;;10.00;2.78;;;30.50;63.80;;;;;;5068351;28;20456;-83
2022/07/18 11:06:11;;;;;;;5.40;2.83;;;30.60;64.20;;;;;;5070514;28;20054;-84
2022/07/18 11:09:36;;;;;;;4.85;2.70;;;30.80;63.90;;;;;;5070304;28;20118;-81
2022/07/18 11:12:25;;;;;;;8.35;4.28;;;30.90;62.30;;;;;;5068727;28;20048;-82
2022/07/18 11:15:13;;;;;;;6.60;3.00;;;30.80;59.20;;;;;;5071298;28;20049;-81
2022/07/18 11:18:01;;;;;;;6.00;2.55;;;31.10;59.10;;;;;;5069065;28;20133;-80
2022/07/18 11:20:48;;;;;;;7.85;3.38;;;30.80;57.60;;;;;;5070427;28;20098;-81
2022/07/18 11:23:42;;;;;;;5.60;3.10;;;30.90;58.40;;;;;;5070406;28;20048;-82
2022/07/18 11:26:30;;;;;;;7.20;3.65;;;31.10;57.60;;;;;;5054608;28;20302;-84
2022/07/18 11:29:20;;;;;;;6.30;3.38;;;31.30;58.00;;;;;;5069973;28;20040;-81
2022/07/18 11:32:06;;;;;;;7.80;4.57;;;31.50;56.30;;;;;;5069238;28;20060;-80
2022/07/18 11:34:53;;;;;;;8.75;3.60;;;31.60;54.70;;;;;;5068515;28;20461;-81
2022/07/18 11:37:46;;;;;;;10.13;3.72;;;31.70;56.70;;;;;;5070224;28;20429;-80
2022/07/18 11:40:32;;;;;;;7.40;3.27;;;31.90;55.10;;;;;;5067784;28;20209;-82
2022/07/18 11:43:26;;;;;;;7.35;4.13;;;32.00;54.80;;;;;;5068100;28;20051;-82
2022/07/18 11:46:16;;;;;;;7.45;3.20;;;32.30;51.40;;;;;;5069241;28;20048;-83
2022/07/18 11:49:05;;;;;;;8.00;3.80;;;32.20;52.50;;;;;;5069913;28;20090;-82
2022/07/18 11:51:52;;;;;;;7.65;3.58;;;32.40;53.70;;;;;;5069579;28;20088;-83
2022/07/18 11:54:38;;;;;;;6.45;3.42;;;32.50;51.60;;;;;;5069516;28;20052;-83
2022/07/18 11:57:28;;;;;;;7.63;3.28;;;32.80;52.30;;;;;;5069475;28;20091;-83
2022/07/18 12:00:20;;;;;;;8.68;3.00;;;33.40;52.40;;;;;;5068330;28;20049;-83
2022/07/18 12:03:18;;;;;;;5.80;2.35;;;32.90;52.60;;;;;;5068852;28;20135;-80
2022/07/18 12:06:13;;;;;;;7.40;2.50;;;32.90;53.70;;;;;;5069556;28;20044;-80
2022/07/18 12:09:06;;;;;;;5.30;2.05;;;33.30;54.10;;;;;;5057898;28;20045;-80
2022/07/18 12:11:52;;;;;;;6.07;2.63;;;33.60;53.10;;;;;;5072317;28;20110;-83
2022/07/18 12:14:39;;;;;;;6.60;2.22;;;33.80;52.70;;;;;;5072538;28;20048;-81
2022/07/18 12:17:26;;;;;;;6.45;1.70;;;34.00;52.50;;;;;;5072559;28;20669;-82
2022/07/18 12:20:21;;;;;;;4.60;1.58;;;34.00;52.40;;;;;;5074737;28;20182;-84
2022/07/18 12:23:11;;;;;;;5.68;1.40;;;33.90;50.70;;;;;;5077212;28;20048;-83
2022/07/18 12:25:58;;;;;;;6.32;1.65;;;33.80;49.90;;;;;;5077439;28;20052;-80
2022/07/18 12:28:44;;;;;;;7.38;1.55;;;33.30;48.90;;;;;;5077515;28;20040;-84
2022/07/18 12:31:42;;;;;;;4.20;1.45;;;33.10;50.30;;;;;;5073516;28;20139;-82
2022/07/18 12:34:28;;;;;;;5.32;1.48;;;33.60;47.70;;;;;;5073443;28;20383;-86
2022/07/18 12:37:24;;;;;;;9.35;1.60;;;33.60;48.90;;;;;;5075383;28;20048;-82
2022/07/18 12:40:11;;;;;;;3.55;1.50;;;33.30;48.20;;;;;;5074601;28;20055;-81
2022/07/18 12:43:07;;;;;;;4.97;1.40;;;33.50;49.20;;;;;;5074383;28;20056;-83
2022/07/18 12:45:55;;;;;;;5.13;1.40;;;34.00;48.20;;;;;;5073128;28;20565;-84
2022/07/18 12:48:42;;;;;;;8.40;1.50;;;33.90;47.40;;;;;;5071634;28;20735;-84
2022/07/18 12:51:30;;;;;;;4.60;2.22;;;33.80;48.40;;;;;;5073038;28;20412;-83
2022/07/18 12:54:17;;;;;;;4.97;1.90;;;33.60;48.00;;;;;;5071574;28;20056;-82
2022/07/18 12:57:03;;;;;;;4.68;1.70;;;34.10;47.00;;;;;;5072451;28;20404;-82
2022/07/18 12:59:49;;;;;;;5.32;1.60;;;34.30;48.40;;;;;;5071460;28;20094;-83
2022/07/18 13:02:36;;;;;;;4.68;2.17;;;34.70;47.60;;;;;;5072140;28;20127;-81
2022/07/18 13:05:23;;;;;;;5.60;2.40;;;34.70;47.80;;;;;;5072415;28;20051;-84
2022/07/18 13:08:10;;;;;;;8.43;2.38;;;35.10;48.30;;;;;;5071635;28;20050;-82
2022/07/18 13:10:58;;;;;;;5.45;2.20;;;35.50;48.30;;;;;;5072231;28;20044;-83
2022/07/18 13:13:44;;;;;;;3.45;1.90;;;35.40;46.50;;;;;;5073829;28;20122;-82
2022/07/18 13:16:30;;;;;;;5.60;2.28;;;35.10;47.80;;;;;;5071031;28;20041;-84
2022/07/18 13:19:17;;;;;;;5.03;2.35;;;35.50;47.00;;;;;;5069465;28;20044;-84
2022/07/18 13:22:03;;;;;;;5.70;2.63;;;35.80;47.90;;;;;;5070922;28;20048;-82
2022/07/18 13:24:49;;;;;;;9.30;3.22;;;35.70;45.40;;;;;;5071414;28;20051;-83
2022/07/18 13:27:37;;;;;;;7.82;3.15;;;35.30;44.70;;;;;;5071885;28;20059;-82
2022/07/18 13:30:23;;;;;;;6.05;3.42;;;35.10;45.60;;;;;;5071860;28;20056;-83
2022/07/18 13:33:09;;;;;;;6.47;2.95;;;35.00;45.50;;;;;;5071989;28;20139;-81
2022/07/18 13:35:55;;;;;;;6.63;3.13;;;34.90;44.30;;;;;;5072110;28;20051;-83
2022/07/18 13:38:41;;;;;;;6.45;2.92;;;34.50;45.00;;;;;;5071359;28;20507;-83
2022/07/18 13:41:29;;;;;;;8.60;3.67;;;34.50;46.30;;;;;;5072049;28;20070;-84
2022/07/18 13:44:15;;;;;;;8.55;3.25;;;34.40;47.00;;;;;;5070232;28;20056;-83
2022/07/18 13:47:01;;;;;;;4.57;2.80;;;34.20;47.10;;;;;;5056713;28;20098;-83
2022/07/18 13:49:48;;;;;;;6.45;2.92;;;34.50;48.20;;;;;;5071671;28;20609;-84
2022/07/18 13:52:34;;;;;;;6.03;2.72;;;34.60;47.20;;;;;;5072555;28;20048;-83
2022/07/18 13:55:20;;;;;;;5.00;2.80;;;34.50;47.80;;;;;;5071410;28;20049;-82
2022/07/18 13:58:07;;;;;;;5.88;1.75;;;34.20;49.10;;;;;;5071390;28;20051;-80
2022/07/18 14:00:53;;;;;;;8.18;2.08;;;33.70;48.90;;;;;;5070173;28;20056;-83
2022/07/18 14:03:39;;;;;;;4.50;2.05;;;33.90;50.60;;;;;;5071697;28;20062;-81
2022/07/18 14:06:25;;;;;;;6.13;2.25;;;34.10;48.90;;;;;;5057813;28;20377;-80
2022/07/18 14:09:12;;;;;;;10.45;2.33;;;35.10;49.30;;;;;;5073558;28;20052;-81
2022/07/18 14:11:58;;;;;;;3.92;1.70;;;35.90;46.90;;;;;;5071468;28;20847;-81
2022/07/18 14:14:44;;;;;;;4.72;1.85;;;37.10;44.30;;;;;;5071356;28;20052;-82
2022/07/18 14:21:13;;;;;;;5.60;1.80;;;37.20;43.50;;;;;;5033081;28;20053;-83
2022/07/18 14:23:59;;;;;;;6.57;2.40;;;35.80;41.90;;;;;;5034181;28;20061;-82
2022/07/18 14:26:45;;;;;;;7.88;2.45;;;35.90;43.20;;;;;;5033075;28;20466;-81
2022/07/18 14:29:32;;;;;;;8.15;1.73;;;35.90;43.20;;;;;;5033236;28;20112;-82
2022/07/18 14:32:18;;;;;;;5.45;2.15;;;35.40;42.90;;;;;;5034577;28;20064;-83
2022/07/18 14:35:05;;;;;;;4.53;1.70;;;34.60;42.90;;;;;;5033301;28;20049;-82
2022/07/18 14:37:52;;;;;;;5.72;1.80;;;34.60;43.90;;;;;;5032689;28;20572;-83